createdAt,value
2023-10-18T00:01:05.850Z,101038.10
2023-10-18T00:03:37.750Z,101030.33
2023-10-18T00:06:16.898Z,101027.50
2023-10-18T00:08:47.839Z,101030.95
2023-10-18T00:11:19.151Z,101033.33
2023-10-18T00:13:54.088Z,101039.98
2023-10-18T00:16:24.980Z,101038.41
2023-10-18T00:18:55.707Z,101037.37
2023-10-18T00:21:26.420Z,101031.36
2023-10-18T00:23:57.124Z,101033.29
2023-10-18T00:26:27.987Z,101032.74
2023-10-18T00:28:58.640Z,101030.77
2023-10-18T00:31:29.352Z,101027.31
2023-10-18T00:34:00.159Z,101017.92
2023-10-18T00:36:31.663Z,101021.36
2023-10-18T00:39:15.762Z,101022.80
2023-10-18T00:41:46.409Z,101019.77
2023-10-18T00:44:17.247Z,101021.55
2023-10-18T00:46:48.286Z,101023.23
2023-10-18T00:49:20.188Z,101024.95
2023-10-18T00:51:51.754Z,101025.20
2023-10-18T00:54:22.881Z,101019.33
2023-10-18T00:56:53.733Z,101021.52
2023-10-18T00:59:27.786Z,101015.33
2023-10-18T01:01:59.832Z,101013.57
2023-10-18T01:04:32.293Z,101009.61
2023-10-18T01:07:12.748Z,101008.58
2023-10-18T01:09:49.101Z,101007.36
2023-10-18T01:12:20.330Z,101006.82
2023-10-18T01:14:51.077Z,101007.56
2023-10-18T01:17:22.503Z,101004.64
2023-10-18T01:19:54.376Z,101004.77
2023-10-18T01:22:25.285Z,101002.71
2023-10-18T01:24:55.967Z,101001.52
2023-10-18T01:27:26.540Z,100998.66
2023-10-18T01:29:57.212Z,100996.39
2023-10-18T01:32:29.904Z,100990.14
2023-10-18T01:35:02.094Z,100989.93
2023-10-18T01:37:33.170Z,100983.50
2023-10-18T01:40:21.561Z,100983.24
2023-10-18T01:42:57.404Z,100982.52
2023-10-18T01:45:31.459Z,100985.63
2023-10-18T01:48:05.648Z,100982.40
2023-10-18T01:50:36.611Z,100978.10
2023-10-18T01:53:16.907Z,100975.47
2023-10-18T01:55:53.019Z,100981.52
2023-10-18T01:58:25.798Z,100970.82
2023-10-18T02:00:58.440Z,100963.96
2023-10-18T02:03:30.220Z,100957.81
2023-10-18T02:06:00.929Z,100957.89
2023-10-18T02:08:31.457Z,100962.05
2023-10-18T02:11:03.276Z,100963.64
2023-10-18T02:13:33.867Z,100963.61
2023-10-18T02:16:07.404Z,100968.18
2023-10-18T02:18:38.511Z,100970.84
2023-10-18T02:21:09.756Z,100970.42
2023-10-18T02:23:40.448Z,100961.64
2023-10-18T02:26:28.735Z,100954.95
2023-10-18T02:29:00.535Z,100955.53
2023-10-18T02:31:31.775Z,100957.08
2023-10-18T02:34:15.159Z,100952.70
2023-10-18T02:36:54.311Z,100948.64
2023-10-18T02:39:29.546Z,100957.63
2023-10-18T02:42:01.022Z,100964.23
2023-10-18T02:44:31.548Z,100956.42
2023-10-18T02:47:11.582Z,100949.55
2023-10-18T02:49:42.181Z,100942.52
2023-10-18T02:52:18.898Z,100941.61
2023-10-18T02:54:52.653Z,100944.90
2023-10-18T02:57:25.371Z,100937.83
2023-10-18T02:59:58.063Z,100936.29
2023-10-18T03:02:28.656Z,100932.65
2023-10-18T03:05:00.154Z,100928.80
2023-10-18T03:07:31.517Z,100930.92
2023-10-18T03:10:12.614Z,100926.56
2023-10-18T03:12:45.989Z,100921.48
2023-10-18T03:15:19.462Z,100912.39
2023-10-18T03:17:51.102Z,100910.64
2023-10-18T03:20:24.106Z,100909.20
2023-10-18T03:22:56.757Z,100921.65
2023-10-18T03:25:29.055Z,100920.04
2023-10-18T03:28:05.177Z,100917.61
2023-10-18T03:30:47.951Z,100917.60
2023-10-18T03:33:20.769Z,100919.42
2023-10-18T03:36:20.982Z,100911.25
2023-10-18T03:38:56.240Z,100906.71
2023-10-18T03:41:27.433Z,100904.81
2023-10-18T03:44:04.816Z,100898.39
2023-10-18T03:46:48.632Z,100891.98
2023-10-18T03:49:32.303Z,100890.92
2023-10-18T03:52:17.930Z,100893.65
2023-10-18T03:55:05.846Z,100893.14
2023-10-18T03:57:40.379Z,100893.15
2023-10-18T04:00:27.441Z,100888.77
2023-10-18T04:03:00.573Z,100891.95
2023-10-18T04:05:39.295Z,100894.38
2023-10-18T04:08:14.361Z,100890.25
2023-10-18T04:10:45.375Z,100887.93
2023-10-18T04:13:16.331Z,100886.43
2023-10-18T04:15:48.050Z,100881.37
2023-10-18T04:18:27.503Z,100882.05
2023-10-18T04:21:00.867Z,100877.41
2023-10-18T04:23:31.422Z,100876.98
2023-10-18T04:26:04.900Z,100872.92
2023-10-18T04:28:38.790Z,100865.62
2023-10-18T04:31:13.102Z,100855.70
2023-10-18T04:33:44.911Z,100852.00
2023-10-18T04:36:17.745Z,100844.83
2023-10-18T04:38:49.176Z,100842.41
2023-10-18T04:41:29.508Z,100840.61
2023-10-18T04:44:06.412Z,100834.86
2023-10-18T04:46:38.640Z,100830.52
2023-10-18T04:49:24.461Z,100830.48
2023-10-18T04:51:57.521Z,100832.18
2023-10-18T04:54:38.503Z,100838.45
2023-10-18T04:57:12.157Z,100838.64
2023-10-18T04:59:47.645Z,100839.48
2023-10-18T05:02:27.520Z,100847.35
2023-10-18T05:04:58.938Z,100852.14
2023-10-18T05:07:43.190Z,100855.93
2023-10-18T05:10:18.032Z,100855.65
2023-10-18T05:13:02.815Z,100855.25
2023-10-18T05:15:34.527Z,100851.34
2023-10-18T05:18:07.263Z,100845.48
2023-10-18T05:20:47.794Z,100853.08
2023-10-18T05:23:23.304Z,100854.77
2023-10-18T05:26:10.032Z,100855.23
2023-10-18T05:28:50.719Z,100849.63
2023-10-18T05:31:39.428Z,100850.21
2023-10-18T05:34:19.951Z,100849.28
2023-10-18T05:37:15.139Z,100850.08
2023-10-18T05:40:11.837Z,100845.10
2023-10-18T05:42:47.304Z,100847.73
2023-10-18T05:45:18.252Z,100849.23
2023-10-18T05:47:55.381Z,100845.56
2023-10-18T05:50:26.745Z,100851.42
2023-10-18T05:53:00.169Z,100850.45
2023-10-18T05:55:32.015Z,100846.11
2023-10-18T05:58:06.087Z,100841.25
2023-10-18T06:00:37.459Z,100843.27
2023-10-18T06:03:10.963Z,100839.74
2023-10-18T06:05:43.126Z,100834.79
2023-10-18T06:08:15.363Z,100830.92
2023-10-18T06:10:50.524Z,100827.67
2023-10-18T06:13:23.378Z,100831.81
2023-10-18T06:15:54.461Z,100837.78
2023-10-18T06:18:32.158Z,100841.34
2023-10-18T06:21:08.830Z,100836.30
2023-10-18T06:23:39.502Z,100832.96
2023-10-18T06:26:27.335Z,100823.92
2023-10-18T06:29:01.695Z,100823.63
2023-10-18T06:31:41.309Z,100821.92
2023-10-18T06:34:16.970Z,100816.70
2023-10-18T06:36:48.912Z,100819.63
2023-10-18T06:39:29.109Z,100814.64
2023-10-18T06:42:00.180Z,100813.10
2023-10-18T06:44:31.794Z,100808.64
2023-10-18T06:47:07.431Z,100803.50
2023-10-18T06:49:38.157Z,100798.94
2023-10-18T06:52:10.325Z,100798.27
2023-10-18T06:54:41.336Z,100796.70
2023-10-18T06:57:17.600Z,100795.72
2023-10-18T06:59:51.357Z,100796.34
2023-10-18T07:02:28.532Z,100796.61
2023-10-18T07:05:01.937Z,100794.94
2023-10-18T07:07:34.417Z,100793.73
2023-10-18T07:10:07.008Z,100791.43
2023-10-18T07:12:48.938Z,100797.94
2023-10-18T07:15:24.325Z,100794.69
2023-10-18T07:17:56.615Z,100788.48
2023-10-18T07:20:33.735Z,100786.63
2023-10-18T07:23:06.342Z,100783.60
2023-10-18T07:25:38.786Z,100785.44
2023-10-18T07:28:10.852Z,100773.35
2023-10-18T07:30:46.014Z,100763.72
2023-10-18T07:33:16.829Z,100764.64
2023-10-18T07:35:47.514Z,100764.58
2023-10-18T07:38:26.899Z,100759.45
2023-10-18T07:41:01.417Z,100752.36
2023-10-18T07:43:33.754Z,100750.30
2023-10-18T07:46:10.828Z,100747.98
2023-10-18T07:48:47.770Z,100745.02
2023-10-18T07:51:35.727Z,100737.63
2023-10-18T07:54:06.757Z,100734.59
2023-10-18T07:56:41.862Z,100731.35
2023-10-18T07:59:31.764Z,100729.03
2023-10-18T08:02:11.307Z,100725.06
2023-10-18T08:04:44.886Z,100726.34
2023-10-18T08:07:22.098Z,100720.57
2023-10-18T08:09:55.318Z,100717.66
2023-10-18T08:12:34.251Z,100713.93
2023-10-18T08:15:14.906Z,100711.35
2023-10-18T08:17:46.211Z,100710.05
2023-10-18T08:20:40.050Z,100710.95
2023-10-18T08:23:35.720Z,100713.38
2023-10-18T08:26:06.545Z,100705.74
2023-10-18T08:28:42.852Z,100710.83
2023-10-18T08:31:33.655Z,100708.02
2023-10-18T08:34:07.436Z,100710.66
2023-10-18T08:36:39.706Z,100704.54
2023-10-18T08:39:10.448Z,100706.50
2023-10-18T08:41:53.787Z,100706.84
2023-10-18T08:44:26.300Z,100707.80
2023-10-18T08:47:05.452Z,100708.69
2023-10-18T08:49:45.158Z,100703.86
2023-10-18T08:52:21.621Z,100703.73
2023-10-18T08:54:53.923Z,100698.63
2023-10-18T08:57:35.746Z,100700.34
2023-10-18T09:00:40.211Z,100692.14
2023-10-18T09:03:11.776Z,100686.58
2023-10-18T09:05:42.837Z,100687.32
2023-10-18T09:08:20.483Z,100687.05
2023-10-18T09:10:55.859Z,100686.11
2023-10-18T09:13:38.745Z,100684.58
2023-10-18T09:16:13.732Z,100681.21
2023-10-18T09:18:44.426Z,100681.61
2023-10-18T09:21:20.128Z,100681.09
2023-10-18T09:24:00.482Z,100679.74
2023-10-18T09:26:41.821Z,100676.73
2023-10-18T09:29:12.992Z,100667.95
2023-10-18T09:31:54.243Z,100665.27
2023-10-18T09:34:35.049Z,100664.13
2023-10-18T09:37:12.634Z,100660.00
2023-10-18T09:39:45.404Z,100656.96
2023-10-18T09:42:16.891Z,100654.59
2023-10-18T09:44:48.845Z,100647.41
2023-10-18T09:47:24.998Z,100643.42
2023-10-18T09:49:59.030Z,100636.16
2023-10-18T09:52:33.428Z,100627.31
2023-10-18T09:55:07.727Z,100623.36
2023-10-18T09:57:41.880Z,100613.58
2023-10-18T10:00:14.685Z,100614.12
2023-10-18T10:02:53.955Z,100617.77
2023-10-18T10:05:26.762Z,100617.18
2023-10-18T10:08:01.621Z,100609.80
2023-10-18T10:10:45.871Z,100608.95
2023-10-18T10:13:20.911Z,100607.25
2023-10-18T10:15:57.297Z,100600.83
2023-10-18T10:18:35.087Z,100603.42
2023-10-18T10:21:07.448Z,100599.04
2023-10-18T10:23:39.388Z,100601.17
2023-10-18T10:26:28.858Z,100599.92
2023-10-18T10:29:27.056Z,100596.77
2023-10-18T10:32:06.254Z,100597.91
2023-10-18T10:34:39.258Z,100592.96
2023-10-18T10:37:19.940Z,100589.70
2023-10-18T10:39:51.960Z,100586.90
2023-10-18T10:42:44.459Z,100581.54
2023-10-18T10:45:36.351Z,100577.27
2023-10-18T10:48:33.094Z,100581.03
2023-10-18T10:51:13.326Z,100576.14
2023-10-18T10:53:47.577Z,100572.01
2023-10-18T10:56:21.026Z,100567.45
2023-10-18T10:59:04.283Z,100561.96
2023-10-18T11:02:12.211Z,100559.13
2023-10-18T11:04:59.260Z,100555.36
2023-10-18T11:07:30.615Z,100550.99
2023-10-18T11:10:07.836Z,100550.05
2023-10-18T11:12:39.136Z,100549.27
2023-10-18T11:15:17.434Z,100544.14
2023-10-18T11:17:50.930Z,100539.90
2023-10-18T11:20:31.175Z,100539.94
2023-10-18T11:23:02.084Z,100534.77
2023-10-18T11:25:34.941Z,100531.85
2023-10-18T11:28:29.824Z,100531.64
2023-10-18T11:31:03.718Z,100526.44
2023-10-18T11:33:48.107Z,100518.39
2023-10-18T11:36:20.598Z,100509.59
2023-10-18T11:39:20.015Z,100506.19
2023-10-18T11:41:54.599Z,100502.77
2023-10-18T11:44:34.220Z,100495.45
2023-10-18T11:47:13.262Z,100489.75
2023-10-18T11:49:45.047Z,100481.73
2023-10-18T11:52:23.140Z,100473.75
2023-10-18T11:54:54.498Z,100466.25
2023-10-18T11:57:31.260Z,100462.00
2023-10-18T12:00:16.266Z,100453.83
2023-10-18T12:02:47.282Z,100446.98
2023-10-18T12:05:24.669Z,100441.31
2023-10-18T12:07:56.101Z,100430.05
2023-10-18T12:10:36.027Z,100424.23
2023-10-18T12:13:13.181Z,100421.80
2023-10-18T12:15:44.026Z,100417.48
2023-10-18T12:18:15.318Z,100411.22
2023-10-18T12:20:45.995Z,100405.36
2023-10-18T12:23:19.876Z,100397.38
2023-10-18T12:25:51.538Z,100397.56
2023-10-18T12:28:29.144Z,100389.77
2023-10-18T12:31:02.510Z,100380.98
2023-10-18T12:33:35.931Z,100379.48
2023-10-18T12:36:09.044Z,100372.00
2023-10-18T12:38:40.397Z,100365.67
2023-10-18T12:41:19.681Z,100362.44
2023-10-18T12:43:53.071Z,100351.02
2023-10-18T12:46:24.135Z,100349.48
2023-10-18T12:48:55.251Z,100344.86
2023-10-18T12:51:32.094Z,100342.30
2023-10-18T12:54:05.527Z,100334.33
2023-10-18T12:56:38.925Z,100328.25
2023-10-18T12:59:25.838Z,100327.61
2023-10-18T13:02:01.322Z,100332.52
2023-10-18T13:04:31.895Z,100331.54
2023-10-18T13:07:19.746Z,100325.23
2023-10-18T13:09:50.553Z,100326.95
2023-10-18T13:12:25.221Z,100328.44
2023-10-18T13:14:58.461Z,100326.16
2023-10-18T13:17:33.506Z,100322.84
2023-10-18T13:20:07.407Z,100323.06
2023-10-18T13:22:38.024Z,100317.15
2023-10-18T13:25:10.469Z,100314.10
2023-10-18T13:27:43.389Z,100308.04
2023-10-18T13:30:33.140Z,100304.36
2023-10-18T13:33:12.408Z,100306.55
2023-10-18T13:35:45.360Z,100307.95
2023-10-18T13:38:17.028Z,100304.16
2023-10-18T13:40:48.069Z,100301.85
2023-10-18T13:43:20.700Z,100295.12
2023-10-18T13:46:01.487Z,100296.17
2023-10-18T13:48:32.283Z,100289.84
2023-10-18T13:51:03.590Z,100289.25
2023-10-18T13:53:34.593Z,100281.55
2023-10-18T13:56:05.705Z,100273.54
2023-10-18T13:58:36.955Z,100270.91
2023-10-18T14:01:08.159Z,100264.68
2023-10-18T14:03:43.786Z,100262.39
2023-10-18T14:06:15.922Z,100251.95
2023-10-18T14:08:48.980Z,100244.19
2023-10-18T14:11:20.738Z,100243.67
2023-10-18T14:13:56.263Z,100237.61
2023-10-18T14:16:27.139Z,100235.36
2023-10-18T14:18:58.206Z,100234.92
2023-10-18T14:21:31.005Z,100234.65
2023-10-18T14:24:02.269Z,100229.15
2023-10-18T14:26:34.638Z,100218.52
2023-10-18T14:29:09.762Z,100211.56
2023-10-18T14:31:40.928Z,100209.41
2023-10-18T14:34:11.888Z,100201.50
2023-10-18T14:36:43.293Z,100197.97
2023-10-18T14:39:15.386Z,100190.18
2023-10-18T14:41:46.416Z,100186.77
2023-10-18T14:44:17.178Z,100179.05
2023-10-18T14:46:47.853Z,100175.75
2023-10-18T14:49:20.279Z,100176.48
2023-10-18T14:51:50.915Z,100177.94
2023-10-18T14:54:21.584Z,100171.64
2023-10-18T14:56:53.170Z,100164.80
2023-10-18T14:59:24.982Z,100158.56
2023-10-18T15:01:56.325Z,100155.19
2023-10-18T15:04:27.419Z,100148.46
2023-10-18T15:06:58.066Z,100144.48
2023-10-18T15:09:29.501Z,100134.92
2023-10-18T15:12:00.385Z,100137.42
2023-10-18T15:14:34.046Z,100135.56
2023-10-18T15:17:05.086Z,100134.17
2023-10-18T15:19:35.987Z,100135.05
2023-10-18T15:22:06.752Z,100133.25
2023-10-18T15:24:41.692Z,100135.02
2023-10-18T15:27:16.585Z,100139.69
2023-10-18T15:29:47.972Z,100133.54
2023-10-18T15:32:18.598Z,100128.43
2023-10-18T15:34:49.370Z,100123.73
2023-10-18T15:37:20.497Z,100117.55
2023-10-18T15:39:51.105Z,100113.45
2023-10-18T15:42:24.580Z,100103.59
2023-10-18T15:44:57.351Z,100096.59
2023-10-18T15:47:28.198Z,100087.91
2023-10-18T15:49:59.785Z,100087.80
2023-10-18T15:52:31.534Z,100091.35
2023-10-18T15:55:02.102Z,100095.55
2023-10-18T15:57:32.769Z,100099.98
2023-10-18T16:00:08.936Z,100099.60
2023-10-18T16:02:39.776Z,100097.97
2023-10-18T16:05:11.748Z,100099.91
2023-10-18T16:07:42.465Z,100090.58
2023-10-18T16:10:14.032Z,100088.64
2023-10-18T16:12:46.587Z,100088.93
2023-10-18T16:15:21.544Z,100088.80
2023-10-18T16:17:52.639Z,100088.61
2023-10-18T16:20:25.438Z,100088.31
2023-10-18T16:22:57.327Z,100088.17
2023-10-18T16:25:27.997Z,100085.05
2023-10-18T16:27:58.549Z,100085.29
2023-10-18T16:30:30.217Z,100080.52
2023-10-18T16:33:01.497Z,100076.42
2023-10-18T16:35:32.873Z,100076.52
2023-10-18T16:38:05.335Z,100070.10
2023-10-18T16:40:36.379Z,100069.41
2023-10-18T16:43:07.411Z,100069.83
2023-10-18T16:45:41.541Z,100066.32
2023-10-18T16:48:12.570Z,100066.45
2023-10-18T16:50:43.958Z,100062.67
2023-10-18T16:53:14.886Z,100069.36
2023-10-18T16:55:53.680Z,100061.95
2023-10-18T16:58:24.273Z,100049.92
2023-10-18T17:01:01.076Z,100046.35
2023-10-18T17:03:33.379Z,100040.48
2023-10-18T17:06:07.284Z,100036.96
2023-10-18T17:08:38.406Z,100033.98
2023-10-18T17:11:11.399Z,100024.80
2023-10-18T17:13:44.250Z,100022.41
2023-10-18T17:16:16.072Z,100016.84
2023-10-18T17:18:46.876Z,100013.61
2023-10-18T17:21:20.677Z,100009.09
2023-10-18T17:23:52.431Z,100000.16
2023-10-18T17:26:23.118Z,100005.79
2023-10-18T17:28:54.239Z,100006.97
2023-10-18T17:31:25.212Z,100003.15
2023-10-18T17:33:56.098Z,100002.90
2023-10-18T17:36:27.525Z,100002.16
2023-10-18T17:38:58.957Z,100000.79
2023-10-18T17:41:29.752Z,99993.15
2023-10-18T17:44:00.405Z,99988.04
2023-10-18T17:46:31.254Z,99982.23
2023-10-18T17:49:02.090Z,99982.33
2023-10-18T17:51:32.875Z,99985.42
2023-10-18T17:54:04.530Z,99981.62
2023-10-18T17:56:35.192Z,99979.39
2023-10-18T17:59:10.882Z,99972.15
2023-10-18T18:01:42.538Z,99965.16
2023-10-18T18:04:14.402Z,99964.60
2023-10-18T18:06:48.007Z,99959.23
2023-10-18T18:09:23.900Z,99956.18
2023-10-18T18:11:54.997Z,99954.92
2023-10-18T18:14:25.982Z,99951.48
2023-10-18T18:16:56.764Z,99944.33
2023-10-18T18:19:27.385Z,99941.19
2023-10-18T18:21:58.042Z,99936.16
2023-10-18T18:24:28.800Z,99933.05
2023-10-18T18:26:59.467Z,99928.07
2023-10-18T18:29:30.106Z,99919.81
2023-10-18T18:32:00.866Z,99916.63
2023-10-18T18:34:32.109Z,99913.74
2023-10-18T18:37:03.017Z,99917.14
2023-10-18T18:39:35.825Z,99917.52
2023-10-18T18:42:08.021Z,99919.10
2023-10-18T18:44:39.980Z,99912.34
2023-10-18T18:47:10.840Z,99907.59
2023-10-18T18:49:42.245Z,99901.02
2023-10-18T18:52:12.956Z,99903.29
2023-10-18T18:54:43.849Z,99891.30
2023-10-18T18:57:14.443Z,99891.89
2023-10-18T18:59:45.108Z,99888.89
2023-10-18T19:02:15.767Z,99881.89
2023-10-18T19:04:46.630Z,99875.84
2023-10-18T19:07:17.541Z,99874.59
2023-10-18T19:09:48.271Z,99867.64
2023-10-18T19:12:22.346Z,99867.09
2023-10-18T19:14:54.208Z,99857.91
2023-10-18T19:17:24.875Z,99850.48
2023-10-18T19:19:55.482Z,99854.06
2023-10-18T19:22:26.085Z,99845.52
2023-10-18T19:24:56.660Z,99836.56
2023-10-18T19:27:27.262Z,99831.95
2023-10-18T19:29:57.838Z,99822.44
2023-10-18T19:32:28.402Z,99819.98
2023-10-18T19:34:59.713Z,99819.14
2023-10-18T19:37:32.296Z,99817.21
2023-10-18T19:40:05.977Z,99815.70
2023-10-18T19:42:37.008Z,99813.11
2023-10-18T19:45:10.672Z,99815.41
2023-10-18T19:47:41.827Z,99809.55
2023-10-18T19:50:13.347Z,99803.73
2023-10-18T19:52:44.781Z,99809.26
2023-10-18T19:55:16.673Z,99797.24
2023-10-18T19:57:47.181Z,99796.14
2023-10-18T20:00:19.289Z,99791.71
2023-10-18T20:02:50.134Z,99787.81
2023-10-18T20:05:21.265Z,99783.99
2023-10-18T20:07:52.556Z,99777.77
2023-10-18T20:10:23.175Z,99773.36
2023-10-18T20:12:53.996Z,99768.96
2023-10-18T20:15:25.343Z,99767.71
2023-10-18T20:17:57.240Z,99764.57
2023-10-18T20:20:28.023Z,99765.82
2023-10-18T20:23:01.168Z,99760.84
2023-10-18T20:25:31.806Z,99755.85
2023-10-18T20:28:02.426Z,99754.52
2023-10-18T20:30:33.387Z,99748.31
2023-10-18T20:33:04.312Z,99748.02
2023-10-18T20:35:35.011Z,99746.13
2023-10-18T20:38:05.841Z,99745.50
2023-10-18T20:40:37.804Z,99738.70
2023-10-18T20:43:08.750Z,99736.73
2023-10-18T20:45:39.877Z,99733.89
2023-10-18T20:48:12.368Z,99726.47
2023-10-18T20:50:43.970Z,99723.10
2023-10-18T20:53:16.971Z,99725.20
2023-10-18T20:55:48.342Z,99721.60
2023-10-18T20:58:23.584Z,99721.26
2023-10-18T21:00:54.229Z,99716.11
2023-10-18T21:03:25.742Z,99706.98
2023-10-18T21:06:01.138Z,99697.33
2023-10-18T21:08:34.691Z,99690.27
2023-10-18T21:11:10.217Z,99685.58
2023-10-18T21:13:41.706Z,99672.84
2023-10-18T21:16:13.967Z,99663.33
2023-10-18T21:18:45.997Z,99653.78
2023-10-18T21:21:17.070Z,99656.00
2023-10-18T21:23:47.869Z,99656.09
2023-10-18T21:26:18.881Z,99656.67
2023-10-18T21:28:50.703Z,99648.14
2023-10-18T21:31:21.533Z,99637.85
2023-10-18T21:33:53.005Z,99628.98
2023-10-18T21:36:23.685Z,99617.94
2023-10-18T21:38:54.919Z,99618.61
2023-10-18T21:41:26.774Z,99616.40
2023-10-18T21:43:58.313Z,99612.64
2023-10-18T21:46:29.059Z,99614.36
2023-10-18T21:49:00.092Z,99610.79
2023-10-18T21:51:30.792Z,99613.59
2023-10-18T21:54:01.360Z,99601.88
2023-10-18T21:56:34.837Z,99597.24
2023-10-18T21:59:06.839Z,99585.81
2023-10-18T22:01:45.094Z,99578.40
2023-10-18T22:04:16.939Z,99572.39
2023-10-18T22:06:47.915Z,99570.69
2023-10-18T22:09:32.712Z,99563.40
2023-10-18T22:12:04.888Z,99549.83
2023-10-18T22:14:37.206Z,99539.35
2023-10-18T22:17:15.718Z,99538.88
2023-10-18T22:19:52.338Z,99543.63
2023-10-18T22:22:23.574Z,99545.71
2023-10-18T22:24:54.324Z,99540.17
2023-10-18T22:27:26.410Z,99533.16
2023-10-18T22:29:57.761Z,99522.17
2023-10-18T22:32:29.938Z,99511.06
2023-10-18T22:35:01.061Z,99510.38
2023-10-18T22:37:31.793Z,99513.04
2023-10-18T22:40:06.198Z,99506.03
2023-10-18T22:42:41.104Z,99496.08
2023-10-18T22:45:25.921Z,99488.36
2023-10-18T22:48:00.417Z,99483.84
2023-10-18T22:50:39.240Z,99486.20
2023-10-18T22:53:19.300Z,99486.86
2023-10-18T22:55:57.847Z,99483.33
2023-10-18T22:58:31.102Z,99473.34
2023-10-18T23:01:04.358Z,99471.02
2023-10-18T23:03:35.157Z,99462.25
2023-10-18T23:06:11.574Z,99454.52
2023-10-18T23:08:42.465Z,99448.58
2023-10-18T23:11:34.178Z,99440.43
2023-10-18T23:14:10.347Z,99440.92
2023-10-18T23:16:58.868Z,99441.27
2023-10-18T23:19:37.386Z,99434.01
2023-10-18T23:22:33.043Z,99432.46
2023-10-18T23:25:17.746Z,99426.13
2023-10-18T23:28:06.331Z,99424.08
2023-10-18T23:30:40.902Z,99422.98
2023-10-18T23:33:26.178Z,99415.45
2023-10-18T23:35:58.150Z,99406.99
2023-10-18T23:38:38.088Z,99404.41
2023-10-18T23:41:11.200Z,99398.98
2023-10-18T23:43:50.542Z,99393.08
2023-10-18T23:46:37.881Z,99380.46
2023-10-18T23:52:31.864Z,99371.83
2023-10-18T23:55:12.494Z,99368.89
2023-10-18T23:57:47.842Z,99363.33
